sensor_id;sensor_type;location;lat;lon;timestamp;P1;durP1;ratioP1;P2;durP2;ratioP2
7621;SDS011;3852;52.284;8.032;2022-11-18T00:02:14;14.53;;;11.30;;
7621;SDS011;3852;52.284;8.032;2022-11-18T00:04:39;16.67;;;12.70;;
7621;SDS011;3852;52.284;8.032;2022-11-18T00:07:05;14.47;;;12.83;;
7621;SDS011;3852;52.284;8.032;2022-11-18T00:09:31;13.63;;;11.50;;
7621;SDS011;3852;52.284;8.032;2022-11-18T00:11:57;11.83;;;10.30;;
7621;SDS011;3852;52.284;8.032;2022-11-18T00:14:41;14.97;;;10.57;;
7621;SDS011;3852;52.284;8.032;2022-11-18T00:17:07;15.23;;;12.20;;
7621;SDS011;3852;52.284;8.032;2022-11-18T00:19:34;17.43;;;13.13;;
7621;SDS011;3852;52.284;8.032;2022-11-18T00:22:02;14.33;;;12.27;;
7621;SDS011;3852;52.284;8.032;2022-11-18T00:24:30;17.07;;;13.07;;
7621;SDS011;3852;52.284;8.032;2022-11-18T00:26:56;15.30;;;12.00;;
7621;SDS011;3852;52.284;8.032;2022-11-18T00:29:23;15.17;;;11.90;;
7621;SDS011;3852;52.284;8.032;2022-11-18T00:31:52;17.73;;;13.90;;
7621;SDS011;3852;52.284;8.032;2022-11-18T00:34:22;17.33;;;12.73;;
7621;SDS011;3852;52.284;8.032;2022-11-18T00:36:49;18.57;;;13.47;;
7621;SDS011;3852;52.284;8.032;2022-11-18T00:39:15;17.80;;;13.97;;
7621;SDS011;3852;52.284;8.032;2022-11-18T00:41:45;20.93;;;13.23;;
7621;SDS011;3852;52.284;8.032;2022-11-18T00:44:30;18.37;;;14.40;;
7621;SDS011;3852;52.284;8.032;2022-11-18T00:46:56;17.40;;;12.20;;
7621;SDS011;3852;52.284;8.032;2022-11-18T00:49:22;20.93;;;14.87;;
7621;SDS011;3852;52.284;8.032;2022-11-18T00:51:49;24.40;;;14.90;;
7621;SDS011;3852;52.284;8.032;2022-11-18T00:54:14;19.97;;;14.53;;
7621;SDS011;3852;52.284;8.032;2022-11-18T00:56:41;22.00;;;15.23;;
7621;SDS011;3852;52.284;8.032;2022-11-18T00:59:07;21.03;;;13.87;;
7621;SDS011;3852;52.284;8.032;2022-11-18T01:01:32;20.57;;;14.73;;
7621;SDS011;3852;52.284;8.032;2022-11-18T01:03:58;21.10;;;15.60;;
7621;SDS011;3852;52.284;8.032;2022-11-18T01:06:24;23.73;;;16.87;;
7621;SDS011;3852;52.284;8.032;2022-11-18T01:08:50;23.57;;;15.80;;
7621;SDS011;3852;52.284;8.032;2022-11-18T01:11:16;24.37;;;17.10;;
7621;SDS011;3852;52.284;8.032;2022-11-18T01:14:01;23.73;;;15.07;;
7621;SDS011;3852;52.284;8.032;2022-11-18T01:16:27;25.27;;;14.80;;
7621;SDS011;3852;52.284;8.032;2022-11-18T01:18:53;23.03;;;16.07;;
7621;SDS011;3852;52.284;8.032;2022-11-18T01:21:20;21.47;;;15.63;;
7621;SDS011;3852;52.284;8.032;2022-11-18T01:23:46;22.87;;;16.47;;
7621;SDS011;3852;52.284;8.032;2022-11-18T01:26:12;24.53;;;15.83;;
7621;SDS011;3852;52.284;8.032;2022-11-18T01:28:40;20.27;;;15.33;;
7621;SDS011;3852;52.284;8.032;2022-11-18T01:31:13;23.00;;;16.27;;
7621;SDS011;3852;52.284;8.032;2022-11-18T01:33:43;23.57;;;14.97;;
7621;SDS011;3852;52.284;8.032;2022-11-18T01:36:17;23.73;;;15.77;;
7621;SDS011;3852;52.284;8.032;2022-11-18T01:38:48;23.93;;;17.20;;
7621;SDS011;3852;52.284;8.032;2022-11-18T01:41:15;21.83;;;16.17;;
7621;SDS011;3852;52.284;8.032;2022-11-18T01:46:31;21.13;;;15.30;;
7621;SDS011;3852;52.284;8.032;2022-11-18T01:49:02;22.70;;;15.93;;
7621;SDS011;3852;52.284;8.032;2022-11-18T01:51:33;22.23;;;15.17;;
7621;SDS011;3852;52.284;8.032;2022-11-18T01:54:24;20.77;;;15.20;;
7621;SDS011;3852;52.284;8.032;2022-11-18T01:57:00;21.70;;;16.43;;
7621;SDS011;3852;52.284;8.032;2022-11-18T01:59:33;22.07;;;15.77;;
7621;SDS011;3852;52.284;8.032;2022-11-18T02:02:02;19.93;;;15.83;;
7621;SDS011;3852;52.284;8.032;2022-11-18T02:04:36;24.77;;;16.30;;
7621;SDS011;3852;52.284;8.032;2022-11-18T02:07:03;25.03;;;16.47;;
7621;SDS011;3852;52.284;8.032;2022-11-18T02:09:29;20.67;;;15.50;;
7621;SDS011;3852;52.284;8.032;2022-11-18T02:11:55;24.60;;;17.20;;
7621;SDS011;3852;52.284;8.032;2022-11-18T02:31:22;23.53;;;16.40;;
7621;SDS011;3852;52.284;8.032;2022-11-18T02:34:05;23.07;;;16.33;;
7621;SDS011;3852;52.284;8.032;2022-11-18T02:36:59;21.73;;;17.00;;
7621;SDS011;3852;52.284;8.032;2022-11-18T02:39:52;23.60;;;16.30;;
7621;SDS011;3852;52.284;8.032;2022-11-18T02:42:26;22.03;;;16.13;;
7621;SDS011;3852;52.284;8.032;2022-11-18T02:44:57;22.43;;;16.83;;
7621;SDS011;3852;52.284;8.032;2022-11-18T02:47:32;22.87;;;16.47;;
7621;SDS011;3852;52.284;8.032;2022-11-18T02:50:05;24.83;;;18.30;;
7621;SDS011;3852;52.284;8.032;2022-11-18T02:52:36;24.77;;;16.43;;
7621;SDS011;3852;52.284;8.032;2022-11-18T02:55:04;22.87;;;16.27;;
7621;SDS011;3852;52.284;8.032;2022-11-18T02:57:34;25.33;;;18.70;;
7621;SDS011;3852;52.284;8.032;2022-11-18T03:00:02;25.23;;;17.67;;
7621;SDS011;3852;52.284;8.032;2022-11-18T03:02:38;28.70;;;19.80;;
7621;SDS011;3852;52.284;8.032;2022-11-18T03:05:08;25.60;;;17.73;;
7621;SDS011;3852;52.284;8.032;2022-11-18T03:08:02;23.73;;;17.87;;
7621;SDS011;3852;52.284;8.032;2022-11-18T03:10:38;27.73;;;18.83;;
7621;SDS011;3852;52.284;8.032;2022-11-18T03:13:19;24.53;;;18.07;;
7621;SDS011;3852;52.284;8.032;2022-11-18T03:16:01;30.63;;;20.20;;
7621;SDS011;3852;52.284;8.032;2022-11-18T03:18:41;31.00;;;20.00;;
7621;SDS011;3852;52.284;8.032;2022-11-18T03:21:37;29.47;;;19.63;;
7621;SDS011;3852;52.284;8.032;2022-11-18T03:24:10;34.47;;;20.60;;
7621;SDS011;3852;52.284;8.032;2022-11-18T03:26:53;29.47;;;20.40;;
7621;SDS011;3852;52.284;8.032;2022-11-18T03:29:37;29.03;;;20.40;;
7621;SDS011;3852;52.284;8.032;2022-11-18T03:32:09;30.50;;;19.23;;
7621;SDS011;3852;52.284;8.032;2022-11-18T03:34:44;30.93;;;21.53;;
7621;SDS011;3852;52.284;8.032;2022-11-18T03:37:14;33.50;;;21.17;;
7621;SDS011;3852;52.284;8.032;2022-11-18T03:39:44;30.07;;;19.13;;
7621;SDS011;3852;52.284;8.032;2022-11-18T03:42:27;31.03;;;19.27;;
7621;SDS011;3852;52.284;8.032;2022-11-18T03:45:18;31.80;;;20.33;;
7621;SDS011;3852;52.284;8.032;2022-11-18T03:51:00;31.17;;;20.37;;
7621;SDS011;3852;52.284;8.032;2022-11-18T03:53:34;30.57;;;19.70;;
7621;SDS011;3852;52.284;8.032;2022-11-18T03:56:05;35.20;;;23.03;;
7621;SDS011;3852;52.284;8.032;2022-11-18T03:58:46;32.27;;;20.40;;
7621;SDS011;3852;52.284;8.032;2022-11-18T04:01:33;36.87;;;22.57;;
7621;SDS011;3852;52.284;8.032;2022-11-18T04:04:06;37.67;;;22.30;;
7621;SDS011;3852;52.284;8.032;2022-11-18T04:06:35;34.17;;;21.53;;
7621;SDS011;3852;52.284;8.032;2022-11-18T04:09:36;36.70;;;23.37;;
7621;SDS011;3852;52.284;8.032;2022-11-18T04:12:10;35.43;;;22.27;;
7621;SDS011;3852;52.284;8.032;2022-11-18T04:14:41;33.23;;;21.23;;
7621;SDS011;3852;52.284;8.032;2022-11-18T04:17:13;32.73;;;21.47;;
7621;SDS011;3852;52.284;8.032;2022-11-18T04:19:48;33.63;;;20.73;;
7621;SDS011;3852;52.284;8.032;2022-11-18T04:22:14;33.47;;;22.53;;
7621;SDS011;3852;52.284;8.032;2022-11-18T04:24:42;32.10;;;22.00;;
7621;SDS011;3852;52.284;8.032;2022-11-18T04:27:07;38.73;;;23.27;;
7621;SDS011;3852;52.284;8.032;2022-11-18T04:29:33;33.67;;;21.70;;
7621;SDS011;3852;52.284;8.032;2022-11-18T04:32:00;34.63;;;21.70;;
7621;SDS011;3852;52.284;8.032;2022-11-18T04:34:26;32.03;;;22.07;;
7621;SDS011;3852;52.284;8.032;2022-11-18T04:36:52;41.37;;;23.10;;
7621;SDS011;3852;52.284;8.032;2022-11-18T04:39:19;36.33;;;22.43;;
7621;SDS011;3852;52.284;8.032;2022-11-18T04:41:45;37.03;;;23.53;;
7621;SDS011;3852;52.284;8.032;2022-11-18T04:44:19;37.30;;;22.57;;
7621;SDS011;3852;52.284;8.032;2022-11-18T04:46:51;35.00;;;20.70;;
7621;SDS011;3852;52.284;8.032;2022-11-18T04:49:18;39.10;;;20.90;;
7621;SDS011;3852;52.284;8.032;2022-11-18T04:51:44;34.43;;;21.20;;
7621;SDS011;3852;52.284;8.032;2022-11-18T04:54:11;37.90;;;21.70;;
7621;SDS011;3852;52.284;8.032;2022-11-18T04:56:38;37.17;;;21.97;;
7621;SDS011;3852;52.284;8.032;2022-11-18T04:59:04;34.47;;;22.50;;
7621;SDS011;3852;52.284;8.032;2022-11-18T05:01:31;39.20;;;22.53;;
7621;SDS011;3852;52.284;8.032;2022-11-18T05:04:01;39.30;;;22.77;;
7621;SDS011;3852;52.284;8.032;2022-11-18T05:06:29;36.97;;;22.70;;
7621;SDS011;3852;52.284;8.032;2022-11-18T05:08:56;36.80;;;23.13;;
7621;SDS011;3852;52.284;8.032;2022-11-18T05:11:24;38.50;;;22.77;;
7621;SDS011;3852;52.284;8.032;2022-11-18T05:14:09;36.83;;;22.20;;
7621;SDS011;3852;52.284;8.032;2022-11-18T05:16:35;37.93;;;20.50;;
7621;SDS011;3852;52.284;8.032;2022-11-18T05:19:01;38.53;;;23.03;;
7621;SDS011;3852;52.284;8.032;2022-11-18T05:21:29;39.87;;;22.83;;
7621;SDS011;3852;52.284;8.032;2022-11-18T05:23:55;37.80;;;23.53;;
7621;SDS011;3852;52.284;8.032;2022-11-18T05:26:23;38.67;;;22.70;;
7621;SDS011;3852;52.284;8.032;2022-11-18T05:28:49;35.67;;;21.83;;
7621;SDS011;3852;52.284;8.032;2022-11-18T05:31:15;40.50;;;23.13;;
7621;SDS011;3852;52.284;8.032;2022-11-18T05:33:42;38.77;;;22.10;;
7621;SDS011;3852;52.284;8.032;2022-11-18T05:36:09;44.50;;;22.97;;
7621;SDS011;3852;52.284;8.032;2022-11-18T05:38:42;39.30;;;23.23;;
7621;SDS011;3852;52.284;8.032;2022-11-18T05:41:08;44.30;;;23.27;;
7621;SDS011;3852;52.284;8.032;2022-11-18T05:43:35;40.97;;;24.03;;
7621;SDS011;3852;52.284;8.032;2022-11-18T05:46:02;42.03;;;23.07;;
7621;SDS011;3852;52.284;8.032;2022-11-18T05:48:28;39.80;;;22.53;;
7621;SDS011;3852;52.284;8.032;2022-11-18T05:50:54;38.33;;;22.50;;
7621;SDS011;3852;52.284;8.032;2022-11-18T05:53:22;44.20;;;24.63;;
7621;SDS011;3852;52.284;8.032;2022-11-18T05:55:54;44.17;;;23.73;;
7621;SDS011;3852;52.284;8.032;2022-11-18T05:58:25;40.30;;;22.37;;
7621;SDS011;3852;52.284;8.032;2022-11-18T06:00:53;42.73;;;23.87;;
7621;SDS011;3852;52.284;8.032;2022-11-18T06:03:25;46.70;;;24.83;;
7621;SDS011;3852;52.284;8.032;2022-11-18T06:05:54;42.73;;;22.40;;
7621;SDS011;3852;52.284;8.032;2022-11-18T06:08:23;42.27;;;23.03;;
7621;SDS011;3852;52.284;8.032;2022-11-18T06:10:53;37.57;;;21.53;;
7621;SDS011;3852;52.284;8.032;2022-11-18T06:13:24;44.40;;;23.70;;
7621;SDS011;3852;52.284;8.032;2022-11-18T06:15:54;39.13;;;23.30;;
7621;SDS011;3852;52.284;8.032;2022-11-18T06:18:22;41.30;;;22.73;;
7621;SDS011;3852;52.284;8.032;2022-11-18T06:20:53;43.60;;;23.70;;
7621;SDS011;3852;52.284;8.032;2022-11-18T06:23:29;41.60;;;22.73;;
7621;SDS011;3852;52.284;8.032;2022-11-18T06:25:59;45.80;;;23.97;;
7621;SDS011;3852;52.284;8.032;2022-11-18T06:28:26;41.57;;;22.70;;
7621;SDS011;3852;52.284;8.032;2022-11-18T06:30:53;40.00;;;22.70;;
7621;SDS011;3852;52.284;8.032;2022-11-18T06:33:19;47.17;;;23.47;;
7621;SDS011;3852;52.284;8.032;2022-11-18T06:35:45;48.70;;;23.90;;
7621;SDS011;3852;52.284;8.032;2022-11-18T06:38:11;44.40;;;24.50;;
7621;SDS011;3852;52.284;8.032;2022-11-18T06:40:37;47.17;;;23.70;;
7621;SDS011;3852;52.284;8.032;2022-11-18T06:43:06;43.67;;;24.57;;
7621;SDS011;3852;52.284;8.032;2022-11-18T06:45:52;41.60;;;23.77;;
7621;SDS011;3852;52.284;8.032;2022-11-18T06:48:36;43.73;;;23.63;;
7621;SDS011;3852;52.284;8.032;2022-11-18T06:51:05;48.80;;;25.67;;
7621;SDS011;3852;52.284;8.032;2022-11-18T06:53:32;48.10;;;25.33;;
7621;SDS011;3852;52.284;8.032;2022-11-18T06:56:05;41.70;;;22.50;;
7621;SDS011;3852;52.284;8.032;2022-11-18T06:58:34;44.33;;;23.47;;
7621;SDS011;3852;52.284;8.032;2022-11-18T07:01:10;40.07;;;22.73;;
7621;SDS011;3852;52.284;8.032;2022-11-18T07:03:41;44.63;;;23.33;;
7621;SDS011;3852;52.284;8.032;2022-11-18T07:06:10;40.23;;;22.87;;
7621;SDS011;3852;52.284;8.032;2022-11-18T07:08:38;38.97;;;21.87;;
7621;SDS011;3852;52.284;8.032;2022-11-18T07:11:06;38.10;;;21.63;;
7621;SDS011;3852;52.284;8.032;2022-11-18T07:13:35;37.17;;;21.87;;
7621;SDS011;3852;52.284;8.032;2022-11-18T07:16:06;34.83;;;20.23;;
7621;SDS011;3852;52.284;8.032;2022-11-18T07:18:38;34.53;;;19.67;;
7621;SDS011;3852;52.284;8.032;2022-11-18T07:21:11;36.80;;;20.87;;
7621;SDS011;3852;52.284;8.032;2022-11-18T07:23:45;33.73;;;19.10;;
7621;SDS011;3852;52.284;8.032;2022-11-18T07:26:12;30.87;;;19.40;;
7621;SDS011;3852;52.284;8.032;2022-11-18T07:28:39;32.80;;;18.93;;
7621;SDS011;3852;52.284;8.032;2022-11-18T07:31:09;32.50;;;19.60;;
7621;SDS011;3852;52.284;8.032;2022-11-18T07:33:41;33.33;;;19.23;;
7621;SDS011;3852;52.284;8.032;2022-11-18T07:36:09;29.77;;;18.40;;
7621;SDS011;3852;52.284;8.032;2022-11-18T07:38:38;29.43;;;17.63;;
7621;SDS011;3852;52.284;8.032;2022-11-18T07:43:37;31.97;;;18.53;;
7621;SDS011;3852;52.284;8.032;2022-11-18T07:46:11;32.07;;;18.80;;
7621;SDS011;3852;52.284;8.032;2022-11-18T07:48:38;32.40;;;18.77;;
7621;SDS011;3852;52.284;8.032;2022-11-18T07:51:05;36.10;;;19.47;;
7621;SDS011;3852;52.284;8.032;2022-11-18T07:53:32;31.47;;;18.57;;
7621;SDS011;3852;52.284;8.032;2022-11-18T07:55:59;34.20;;;19.90;;
7621;SDS011;3852;52.284;8.032;2022-11-18T07:58:29;32.40;;;19.47;;
7621;SDS011;3852;52.284;8.032;2022-11-18T08:00:55;29.90;;;19.43;;
7621;SDS011;3852;52.284;8.032;2022-11-18T08:03:27;29.30;;;17.17;;
7621;SDS011;3852;52.284;8.032;2022-11-18T08:06:00;28.63;;;17.10;;
7621;SDS011;3852;52.284;8.032;2022-11-18T08:08:27;22.70;;;15.30;;
7621;SDS011;3852;52.284;8.032;2022-11-18T08:10:56;24.07;;;15.10;;
7621;SDS011;3852;52.284;8.032;2022-11-18T08:13:24;19.97;;;14.70;;
7621;SDS011;3852;52.284;8.032;2022-11-18T08:15:51;24.87;;;15.93;;
7621;SDS011;3852;52.284;8.032;2022-11-18T08:18:18;22.53;;;15.43;;
7621;SDS011;3852;52.284;8.032;2022-11-18T08:20:44;28.80;;;16.00;;
7621;SDS011;3852;52.284;8.032;2022-11-18T08:23:10;26.47;;;16.07;;
7621;SDS011;3852;52.284;8.032;2022-11-18T08:25:38;28.70;;;17.07;;
7621;SDS011;3852;52.284;8.032;2022-11-18T08:28:05;25.60;;;16.43;;
7621;SDS011;3852;52.284;8.032;2022-11-18T08:30:32;29.43;;;17.20;;
7621;SDS011;3852;52.284;8.032;2022-11-18T08:32:58;25.27;;;16.27;;
7621;SDS011;3852;52.284;8.032;2022-11-18T08:35:25;29.60;;;16.93;;
7621;SDS011;3852;52.284;8.032;2022-11-18T08:37:52;30.30;;;17.37;;
7621;SDS011;3852;52.284;8.032;2022-11-18T08:40:18;27.77;;;16.20;;
7621;SDS011;3852;52.284;8.032;2022-11-18T08:42:44;29.67;;;18.10;;
7621;SDS011;3852;52.284;8.032;2022-11-18T08:45:10;26.63;;;17.20;;
7621;SDS011;3852;52.284;8.032;2022-11-18T08:47:36;25.80;;;16.03;;
7621;SDS011;3852;52.284;8.032;2022-11-18T08:50:03;26.13;;;16.57;;
7621;SDS011;3852;52.284;8.032;2022-11-18T08:52:32;27.73;;;15.80;;
7621;SDS011;3852;52.284;8.032;2022-11-18T08:54:58;27.23;;;18.00;;
7621;SDS011;3852;52.284;8.032;2022-11-18T08:57:24;26.73;;;16.77;;
7621;SDS011;3852;52.284;8.032;2022-11-18T08:59:50;26.93;;;16.53;;
7621;SDS011;3852;52.284;8.032;2022-11-18T09:02:16;28.07;;;16.03;;
7621;SDS011;3852;52.284;8.032;2022-11-18T09:04:47;29.03;;;16.33;;
7621;SDS011;3852;52.284;8.032;2022-11-18T09:07:17;24.03;;;14.97;;
7621;SDS011;3852;52.284;8.032;2022-11-18T09:09:45;25.90;;;16.10;;
7621;SDS011;3852;52.284;8.032;2022-11-18T09:12:11;22.30;;;14.83;;
7621;SDS011;3852;52.284;8.032;2022-11-18T09:14:45;26.77;;;16.83;;
7621;SDS011;3852;52.284;8.032;2022-11-18T09:17:11;26.93;;;17.00;;
7621;SDS011;3852;52.284;8.032;2022-11-18T09:19:38;26.93;;;15.80;;
7621;SDS011;3852;52.284;8.032;2022-11-18T09:22:04;25.33;;;16.47;;
7621;SDS011;3852;52.284;8.032;2022-11-18T09:24:32;29.83;;;16.17;;
7621;SDS011;3852;52.284;8.032;2022-11-18T09:26:58;28.17;;;16.80;;
7621;SDS011;3852;52.284;8.032;2022-11-18T09:29:28;27.47;;;15.03;;
7621;SDS011;3852;52.284;8.032;2022-11-18T09:31:54;25.10;;;15.97;;
7621;SDS011;3852;52.284;8.032;2022-11-18T09:34:20;23.30;;;14.80;;
7621;SDS011;3852;52.284;8.032;2022-11-18T09:36:46;23.20;;;15.13;;
7621;SDS011;3852;52.284;8.032;2022-11-18T09:39:12;21.67;;;15.03;;
7621;SDS011;3852;52.284;8.032;2022-11-18T09:49:39;23.57;;;15.00;;
7621;SDS011;3852;52.284;8.032;2022-11-18T09:54:50;24.00;;;14.60;;
7621;SDS011;3852;52.284;8.032;2022-11-18T09:57:24;24.77;;;15.27;;
7621;SDS011;3852;52.284;8.032;2022-11-18T10:00:04;25.97;;;14.63;;
7621;SDS011;3852;52.284;8.032;2022-11-18T10:03:00;21.87;;;14.13;;
7621;SDS011;3852;52.284;8.032;2022-11-18T10:11:24;23.27;;;14.73;;
7621;SDS011;3852;52.284;8.032;2022-11-18T10:23:06;25.10;;;15.97;;
7621;SDS011;3852;52.284;8.032;2022-11-18T10:25:46;26.10;;;14.97;;
7621;SDS011;3852;52.284;8.032;2022-11-18T10:28:17;24.70;;;16.33;;
7621;SDS011;3852;52.284;8.032;2022-11-18T10:31:03;31.23;;;16.60;;
7621;SDS011;3852;52.284;8.032;2022-11-18T10:33:32;28.07;;;16.63;;
7621;SDS011;3852;52.284;8.032;2022-11-18T10:36:09;30.27;;;16.37;;
7621;SDS011;3852;52.284;8.032;2022-11-18T10:38:41;30.17;;;16.90;;
7621;SDS011;3852;52.284;8.032;2022-11-18T10:41:10;30.50;;;17.80;;
7621;SDS011;3852;52.284;8.032;2022-11-18T10:43:55;26.77;;;16.57;;
7621;SDS011;3852;52.284;8.032;2022-11-18T10:46:23;29.70;;;17.63;;
7621;SDS011;3852;52.284;8.032;2022-11-18T10:51:38;33.40;;;18.93;;
7621;SDS011;3852;52.284;8.032;2022-11-18T10:54:25;34.00;;;18.87;;
7621;SDS011;3852;52.284;8.032;2022-11-18T10:56:52;34.67;;;19.70;;
7621;SDS011;3852;52.284;8.032;2022-11-18T11:04:58;30.47;;;18.23;;
7621;SDS011;3852;52.284;8.032;2022-11-18T11:07:32;34.43;;;18.10;;
7621;SDS011;3852;52.284;8.032;2022-11-18T11:12:53;29.40;;;17.07;;
7621;SDS011;3852;52.284;8.032;2022-11-18T11:18:09;32.37;;;17.17;;
7621;SDS011;3852;52.284;8.032;2022-11-18T11:21:15;28.70;;;17.30;;
7621;SDS011;3852;52.284;8.032;2022-11-18T11:23:44;29.17;;;17.10;;
7621;SDS011;3852;52.284;8.032;2022-11-18T11:29:06;31.97;;;17.67;;
7621;SDS011;3852;52.284;8.032;2022-11-18T11:34:49;32.90;;;17.93;;
7621;SDS011;3852;52.284;8.032;2022-11-18T11:40:21;36.03;;;19.87;;
7621;SDS011;3852;52.284;8.032;2022-11-18T11:48:55;39.50;;;21.20;;
7621;SDS011;3852;52.284;8.032;2022-11-18T11:51:36;44.10;;;20.93;;
7621;SDS011;3852;52.284;8.032;2022-11-18T11:57:04;38.33;;;20.13;;
7621;SDS011;3852;52.284;8.032;2022-11-18T12:00:03;41.83;;;21.13;;
7621;SDS011;3852;52.284;8.032;2022-11-18T12:02:37;44.00;;;21.70;;
7621;SDS011;3852;52.284;8.032;2022-11-18T12:05:34;37.47;;;20.50;;
7621;SDS011;3852;52.284;8.032;2022-11-18T12:10:52;42.97;;;21.73;;
7621;SDS011;3852;52.284;8.032;2022-11-18T12:13:45;39.70;;;20.90;;
7621;SDS011;3852;52.284;8.032;2022-11-18T12:19:24;44.17;;;21.57;;
7621;SDS011;3852;52.284;8.032;2022-11-18T12:21:52;42.80;;;22.60;;
7621;SDS011;3852;52.284;8.032;2022-11-18T12:29:55;38.63;;;21.23;;
7621;SDS011;3852;52.284;8.032;2022-11-18T12:35:10;39.87;;;20.73;;
7621;SDS011;3852;52.284;8.032;2022-11-18T12:51:48;36.67;;;20.10;;
7621;SDS011;3852;52.284;8.032;2022-11-18T12:54:34;36.23;;;19.53;;
7621;SDS011;3852;52.284;8.032;2022-11-18T12:59:44;37.60;;;19.80;;
7621;SDS011;3852;52.284;8.032;2022-11-18T13:04:43;44.90;;;21.13;;
7621;SDS011;3852;52.284;8.032;2022-11-18T13:07:10;43.53;;;22.13;;
7621;SDS011;3852;52.284;8.032;2022-11-18T13:09:56;42.00;;;20.67;;
7621;SDS011;3852;52.284;8.032;2022-11-18T13:12:26;43.00;;;20.17;;
7621;SDS011;3852;52.284;8.032;2022-11-18T13:14:56;36.40;;;20.47;;
7621;SDS011;3852;52.284;8.032;2022-11-18T13:17:44;40.90;;;21.63;;
7621;SDS011;3852;52.284;8.032;2022-11-18T13:20:21;42.17;;;20.63;;
7621;SDS011;3852;52.284;8.032;2022-11-18T13:23:23;40.43;;;20.90;;
7621;SDS011;3852;52.284;8.032;2022-11-18T13:26:03;38.97;;;19.77;;
7621;SDS011;3852;52.284;8.032;2022-11-18T13:34:46;35.67;;;18.00;;
7621;SDS011;3852;52.284;8.032;2022-11-18T13:37:18;38.00;;;18.63;;
7621;SDS011;3852;52.284;8.032;2022-11-18T13:39:47;34.67;;;19.13;;
7621;SDS011;3852;52.284;8.032;2022-11-18T13:44:51;34.23;;;18.20;;
7621;SDS011;3852;52.284;8.032;2022-11-18T13:55:47;26.87;;;15.17;;
7621;SDS011;3852;52.284;8.032;2022-11-18T14:01:26;29.60;;;15.37;;
7621;SDS011;3852;52.284;8.032;2022-11-18T14:04:01;26.30;;;15.63;;
7621;SDS011;3852;52.284;8.032;2022-11-18T14:06:31;26.13;;;13.93;;
7621;SDS011;3852;52.284;8.032;2022-11-18T14:12:02;23.07;;;13.63;;
7621;SDS011;3852;52.284;8.032;2022-11-18T14:14:46;23.33;;;13.53;;
7621;SDS011;3852;52.284;8.032;2022-11-18T14:17:19;27.87;;;14.30;;
7621;SDS011;3852;52.284;8.032;2022-11-18T14:19:47;23.70;;;13.43;;
7621;SDS011;3852;52.284;8.032;2022-11-18T14:22:37;20.63;;;12.80;;
7621;SDS011;3852;52.284;8.032;2022-11-18T14:27:49;22.20;;;13.03;;
7621;SDS011;3852;52.284;8.032;2022-11-18T14:30:28;21.77;;;13.07;;
7621;SDS011;3852;52.284;8.032;2022-11-18T14:38:14;18.03;;;10.87;;
7621;SDS011;3852;52.284;8.032;2022-11-18T14:40:55;18.83;;;11.47;;
7621;SDS011;3852;52.284;8.032;2022-11-18T14:43:24;19.27;;;10.90;;
7621;SDS011;3852;52.284;8.032;2022-11-18T14:45:51;18.23;;;11.27;;
7621;SDS011;3852;52.284;8.032;2022-11-18T14:48:27;20.03;;;11.17;;
7621;SDS011;3852;52.284;8.032;2022-11-18T14:50:56;18.60;;;11.10;;
7621;SDS011;3852;52.284;8.032;2022-11-18T14:53:22;21.03;;;12.50;;
7621;SDS011;3852;52.284;8.032;2022-11-18T14:55:49;24.23;;;13.33;;
7621;SDS011;3852;52.284;8.032;2022-11-18T14:58:18;22.50;;;12.83;;
7621;SDS011;3852;52.284;8.032;2022-11-18T15:00:45;24.30;;;14.13;;
7621;SDS011;3852;52.284;8.032;2022-11-18T15:03:13;25.20;;;14.57;;
7621;SDS011;3852;52.284;8.032;2022-11-18T15:05:39;24.57;;;14.17;;
7621;SDS011;3852;52.284;8.032;2022-11-18T15:08:06;23.30;;;13.67;;
7621;SDS011;3852;52.284;8.032;2022-11-18T15:10:32;23.53;;;13.80;;
7621;SDS011;3852;52.284;8.032;2022-11-18T15:12:59;25.97;;;15.37;;
7621;SDS011;3852;52.284;8.032;2022-11-18T15:15:25;23.30;;;13.83;;
7621;SDS011;3852;52.284;8.032;2022-11-18T15:17:51;23.60;;;13.37;;
7621;SDS011;3852;52.284;8.032;2022-11-18T15:20:18;24.87;;;13.60;;
7621;SDS011;3852;52.284;8.032;2022-11-18T15:22:46;23.80;;;13.43;;
7621;SDS011;3852;52.284;8.032;2022-11-18T15:25:12;21.73;;;12.13;;
7621;SDS011;3852;52.284;8.032;2022-11-18T15:27:38;21.63;;;13.27;;
7621;SDS011;3852;52.284;8.032;2022-11-18T15:30:04;23.77;;;13.73;;
7621;SDS011;3852;52.284;8.032;2022-11-18T15:32:31;21.17;;;12.70;;
7621;SDS011;3852;52.284;8.032;2022-11-18T15:34:57;22.17;;;14.47;;
7621;SDS011;3852;52.284;8.032;2022-11-18T15:37:22;23.23;;;13.53;;
7621;SDS011;3852;52.284;8.032;2022-11-18T15:39:48;24.77;;;15.70;;
7621;SDS011;3852;52.284;8.032;2022-11-18T15:42:15;21.83;;;13.33;;
7621;SDS011;3852;52.284;8.032;2022-11-18T15:44:44;20.07;;;12.47;;
7621;SDS011;3852;52.284;8.032;2022-11-18T15:47:10;18.83;;;11.77;;
7621;SDS011;3852;52.284;8.032;2022-11-18T15:49:36;17.00;;;10.73;;
7621;SDS011;3852;52.284;8.032;2022-11-18T15:52:07;21.30;;;12.10;;
7621;SDS011;3852;52.284;8.032;2022-11-18T15:54:35;18.07;;;11.17;;
7621;SDS011;3852;52.284;8.032;2022-11-18T15:57:02;17.63;;;11.77;;
7621;SDS011;3852;52.284;8.032;2022-11-18T15:59:28;16.07;;;10.63;;
7621;SDS011;3852;52.284;8.032;2022-11-18T16:01:54;17.47;;;11.57;;
7621;SDS011;3852;52.284;8.032;2022-11-18T16:04:20;18.53;;;11.33;;
7621;SDS011;3852;52.284;8.032;2022-11-18T16:06:47;19.27;;;11.47;;
7621;SDS011;3852;52.284;8.032;2022-11-18T16:09:14;21.13;;;11.63;;
7621;SDS011;3852;52.284;8.032;2022-11-18T16:11:40;21.03;;;12.23;;
7621;SDS011;3852;52.284;8.032;2022-11-18T16:14:25;20.53;;;12.43;;
7621;SDS011;3852;52.284;8.032;2022-11-18T16:16:52;21.40;;;12.10;;
7621;SDS011;3852;52.284;8.032;2022-11-18T16:19:20;24.17;;;13.53;;
7621;SDS011;3852;52.284;8.032;2022-11-18T16:21:49;25.33;;;14.30;;
7621;SDS011;3852;52.284;8.032;2022-11-18T16:24:19;23.83;;;14.37;;
7621;SDS011;3852;52.284;8.032;2022-11-18T16:26:48;23.77;;;14.50;;
7621;SDS011;3852;52.284;8.032;2022-11-18T16:29:14;26.27;;;15.00;;
7621;SDS011;3852;52.284;8.032;2022-11-18T16:31:41;29.27;;;16.60;;
7621;SDS011;3852;52.284;8.032;2022-11-18T16:36:39;31.73;;;17.17;;
7621;SDS011;3852;52.284;8.032;2022-11-18T16:39:13;30.67;;;16.57;;
7621;SDS011;3852;52.284;8.032;2022-11-18T16:41:49;31.60;;;17.57;;
7621;SDS011;3852;52.284;8.032;2022-11-18T16:44:20;33.73;;;18.03;;
7621;SDS011;3852;52.284;8.032;2022-11-18T16:46:49;34.40;;;17.87;;
7621;SDS011;3852;52.284;8.032;2022-11-18T16:49:18;26.67;;;16.03;;
7621;SDS011;3852;52.284;8.032;2022-11-18T16:51:47;29.17;;;16.63;;
7621;SDS011;3852;52.284;8.032;2022-11-18T16:54:16;27.67;;;16.30;;
7621;SDS011;3852;52.284;8.032;2022-11-18T16:56:48;31.37;;;16.60;;
7621;SDS011;3852;52.284;8.032;2022-11-18T16:59:16;28.73;;;17.23;;
7621;SDS011;3852;52.284;8.032;2022-11-18T17:01:48;29.23;;;15.73;;
7621;SDS011;3852;52.284;8.032;2022-11-18T17:04:16;26.17;;;15.87;;
7621;SDS011;3852;52.284;8.032;2022-11-18T17:06:43;27.93;;;15.73;;
7621;SDS011;3852;52.284;8.032;2022-11-18T17:09:11;32.37;;;16.20;;
7621;SDS011;3852;52.284;8.032;2022-11-18T17:11:43;28.87;;;16.07;;
7621;SDS011;3852;52.284;8.032;2022-11-18T17:14:09;29.37;;;16.50;;
7621;SDS011;3852;52.284;8.032;2022-11-18T17:16:35;28.53;;;15.73;;
7621;SDS011;3852;52.284;8.032;2022-11-18T17:19:01;30.23;;;16.60;;
7621;SDS011;3852;52.284;8.032;2022-11-18T17:21:28;27.97;;;16.40;;
7621;SDS011;3852;52.284;8.032;2022-11-18T17:23:55;32.10;;;18.33;;
7621;SDS011;3852;52.284;8.032;2022-11-18T17:26:23;28.97;;;16.50;;
7621;SDS011;3852;52.284;8.032;2022-11-18T17:28:51;31.40;;;17.67;;
7621;SDS011;3852;52.284;8.032;2022-11-18T17:31:20;32.67;;;18.53;;
7621;SDS011;3852;52.284;8.032;2022-11-18T17:33:47;34.30;;;18.83;;
7621;SDS011;3852;52.284;8.032;2022-11-18T17:36:16;32.83;;;18.30;;
7621;SDS011;3852;52.284;8.032;2022-11-18T17:38:45;35.17;;;19.20;;
7621;SDS011;3852;52.284;8.032;2022-11-18T17:41:14;37.17;;;19.67;;